sensor_id;sensor_type;location;lat;lon;timestamp;temperature;humidity
30280;DHT22;17097;50.916;5.344;2023-09-19T00:01:14;17.40;99.90
30280;DHT22;17097;50.916;5.344;2023-09-19T00:03:40;17.50;99.90
30280;DHT22;17097;50.916;5.344;2023-09-19T00:06:07;17.50;99.90
30280;DHT22;17097;50.916;5.344;2023-09-19T00:08:33;17.50;99.90
30280;DHT22;17097;50.916;5.344;2023-09-19T00:10:59;17.40;99.90
30280;DHT22;17097;50.916;5.344;2023-09-19T00:13:31;17.40;99.90
30280;DHT22;17097;50.916;5.344;2023-09-19T00:16:01;17.40;99.90
30280;DHT22;17097;50.916;5.344;2023-09-19T00:18:33;17.40;99.90
30280;DHT22;17097;50.916;5.344;2023-09-19T00:21:00;17.50;99.90
30280;DHT22;17097;50.916;5.344;2023-09-19T00:23:25;17.50;99.90
30280;DHT22;17097;50.916;5.344;2023-09-19T00:25:53;17.40;99.90
30280;DHT22;17097;50.916;5.344;2023-09-19T00:28:22;17.40;99.90
30280;DHT22;17097;50.916;5.344;2023-09-19T00:30:48;17.40;99.90
30280;DHT22;17097;50.916;5.344;2023-09-19T00:33:16;17.50;99.90
30280;DHT22;17097;50.916;5.344;2023-09-19T00:38:14;17.40;99.90
30280;DHT22;17097;50.916;5.344;2023-09-19T00:40:45;17.30;99.90
30280;DHT22;17097;50.916;5.344;2023-09-19T00:43:11;17.30;99.90
30280;DHT22;17097;50.916;5.344;2023-09-19T00:45:36;17.30;99.90
30280;DHT22;17097;50.916;5.344;2023-09-19T00:48:04;17.30;99.90
30280;DHT22;17097;50.916;5.344;2023-09-19T00:50:31;17.40;99.90
30280;DHT22;17097;50.916;5.344;2023-09-19T00:52:57;17.40;99.90
30280;DHT22;17097;50.916;5.344;2023-09-19T00:55:23;17.40;99.90
30280;DHT22;17097;50.916;5.344;2023-09-19T00:57:49;17.40;99.90
30280;DHT22;17097;50.916;5.344;2023-09-19T01:00:16;17.30;99.90
30280;DHT22;17097;50.916;5.344;2023-09-19T01:02:48;17.30;99.90
30280;DHT22;17097;50.916;5.344;2023-09-19T01:05:13;17.20;99.90
30280;DHT22;17097;50.916;5.344;2023-09-19T01:07:39;17.30;99.90
30280;DHT22;17097;50.916;5.344;2023-09-19T01:10:06;17.30;99.90
30280;DHT22;17097;50.916;5.344;2023-09-19T01:15:26;17.40;99.90
30280;DHT22;17097;50.916;5.344;2023-09-19T01:18:05;17.20;99.90
30280;DHT22;17097;50.916;5.344;2023-09-19T01:23:13;17.30;99.90
30280;DHT22;17097;50.916;5.344;2023-09-19T01:26:26;17.30;99.90
30280;DHT22;17097;50.916;5.344;2023-09-19T01:30:52;17.20;99.90
30280;DHT22;17097;50.916;5.344;2023-09-19T01:33:22;17.10;99.90
30280;DHT22;17097;50.916;5.344;2023-09-19T01:35:48;17.10;99.90
30280;DHT22;17097;50.916;5.344;2023-09-19T01:38:14;17.10;99.90
30280;DHT22;17097;50.916;5.344;2023-09-19T01:40:43;17.10;99.90
30280;DHT22;17097;50.916;5.344;2023-09-19T01:43:20;17.00;99.90
30280;DHT22;17097;50.916;5.344;2023-09-19T01:48:20;17.10;99.90
30280;DHT22;17097;50.916;5.344;2023-09-19T01:55:49;17.00;99.90
30280;DHT22;17097;50.916;5.344;2023-09-19T01:58:21;17.00;99.90
30280;DHT22;17097;50.916;5.344;2023-09-19T02:00:52;16.90;99.90
30280;DHT22;17097;50.916;5.344;2023-09-19T02:03:20;16.90;99.90
30280;DHT22;17097;50.916;5.344;2023-09-19T02:05:50;16.90;99.90
30280;DHT22;17097;50.916;5.344;2023-09-19T02:08:17;17.00;99.90
30280;DHT22;17097;50.916;5.344;2023-09-19T02:10:44;16.90;99.90
30280;DHT22;17097;50.916;5.344;2023-09-19T02:13:17;17.00;99.90
30280;DHT22;17097;50.916;5.344;2023-09-19T02:15:45;17.00;99.90
30280;DHT22;17097;50.916;5.344;2023-09-19T02:18:14;17.00;99.90
30280;DHT22;17097;50.916;5.344;2023-09-19T02:20:43;17.00;99.90
30280;DHT22;17097;50.916;5.344;2023-09-19T02:23:09;17.00;99.90
30280;DHT22;17097;50.916;5.344;2023-09-19T02:25:35;17.00;99.90
30280;DHT22;17097;50.916;5.344;2023-09-19T02:28:01;16.90;99.90
30280;DHT22;17097;50.916;5.344;2023-09-19T02:30:28;16.90;99.90
30280;DHT22;17097;50.916;5.344;2023-09-19T02:32:55;16.80;99.90
30280;DHT22;17097;50.916;5.344;2023-09-19T02:35:25;16.70;99.90
30280;DHT22;17097;50.916;5.344;2023-09-19T02:37:51;16.70;99.90
30280;DHT22;17097;50.916;5.344;2023-09-19T02:40:17;16.70;99.90
30280;DHT22;17097;50.916;5.344;2023-09-19T02:42:53;16.70;99.90
30280;DHT22;17097;50.916;5.344;2023-09-19T02:45:19;16.60;99.90
30280;DHT22;17097;50.916;5.344;2023-09-19T02:47:45;16.60;99.90
30280;DHT22;17097;50.916;5.344;2023-09-19T02:50:13;16.60;99.90
30280;DHT22;17097;50.916;5.344;2023-09-19T02:52:41;16.60;99.90
30280;DHT22;17097;50.916;5.344;2023-09-19T02:55:10;16.70;99.90
30280;DHT22;17097;50.916;5.344;2023-09-19T02:57:36;16.60;99.90
30280;DHT22;17097;50.916;5.344;2023-09-19T03:00:02;16.50;99.90
30280;DHT22;17097;50.916;5.344;2023-09-19T03:02:28;16.60;99.90
30280;DHT22;17097;50.916;5.344;2023-09-19T03:04:54;16.60;99.90
30280;DHT22;17097;50.916;5.344;2023-09-19T03:07:19;16.60;99.90
30280;DHT22;17097;50.916;5.344;2023-09-19T03:09:45;16.50;99.90
30280;DHT22;17097;50.916;5.344;2023-09-19T03:12:10;16.60;99.90
30280;DHT22;17097;50.916;5.344;2023-09-19T03:14:36;16.60;99.90
30280;DHT22;17097;50.916;5.344;2023-09-19T03:17:02;16.60;99.90
30280;DHT22;17097;50.916;5.344;2023-09-19T03:19:32;16.60;99.90
30280;DHT22;17097;50.916;5.344;2023-09-19T03:22:02;16.60;99.90
30280;DHT22;17097;50.916;5.344;2023-09-19T03:24:28;16.60;99.90
30280;DHT22;17097;50.916;5.344;2023-09-19T03:26:54;16.50;99.90
30280;DHT22;17097;50.916;5.344;2023-09-19T03:29:20;16.50;99.90
30280;DHT22;17097;50.916;5.344;2023-09-19T03:31:45;16.50;99.90
30280;DHT22;17097;50.916;5.344;2023-09-19T03:34:11;16.50;99.90
30280;DHT22;17097;50.916;5.344;2023-09-19T03:36:39;16.50;99.90
30280;DHT22;17097;50.916;5.344;2023-09-19T03:39:06;16.40;99.90
30280;DHT22;17097;50.916;5.344;2023-09-19T03:41:31;16.40;99.90
30280;DHT22;17097;50.916;5.344;2023-09-19T03:43:58;16.40;99.90
30280;DHT22;17097;50.916;5.344;2023-09-19T03:46:23;16.40;99.90
30280;DHT22;17097;50.916;5.344;2023-09-19T03:48:52;16.50;99.90
30280;DHT22;17097;50.916;5.344;2023-09-19T03:51:17;16.50;99.90
30280;DHT22;17097;50.916;5.344;2023-09-19T03:53:43;16.40;99.90
30280;DHT22;17097;50.916;5.344;2023-09-19T03:56:08;16.50;99.90
30280;DHT22;17097;50.916;5.344;2023-09-19T03:58:34;16.40;99.90
30280;DHT22;17097;50.916;5.344;2023-09-19T04:01:04;16.50;99.90
30280;DHT22;17097;50.916;5.344;2023-09-19T04:03:29;16.50;99.90
30280;DHT22;17097;50.916;5.344;2023-09-19T04:06:12;16.50;99.90
30280;DHT22;17097;50.916;5.344;2023-09-19T04:08:38;16.50;99.90
30280;DHT22;17097;50.916;5.344;2023-09-19T04:11:05;16.50;99.90
30280;DHT22;17097;50.916;5.344;2023-09-19T04:13:31;16.40;99.90
30280;DHT22;17097;50.916;5.344;2023-09-19T04:15:57;16.50;99.90
30280;DHT22;17097;50.916;5.344;2023-09-19T04:18:22;16.50;99.90
30280;DHT22;17097;50.916;5.344;2023-09-19T04:20:49;16.60;99.90
30280;DHT22;17097;50.916;5.344;2023-09-19T04:23:15;16.70;99.90
30280;DHT22;17097;50.916;5.344;2023-09-19T04:25:40;16.60;99.90
30280;DHT22;17097;50.916;5.344;2023-09-19T04:28:06;16.60;99.90
30280;DHT22;17097;50.916;5.344;2023-09-19T04:30:32;16.70;99.90
30280;DHT22;17097;50.916;5.344;2023-09-19T04:33:00;16.60;99.90
30280;DHT22;17097;50.916;5.344;2023-09-19T04:35:27;16.60;99.90
30280;DHT22;17097;50.916;5.344;2023-09-19T04:37:54;16.60;99.90
30280;DHT22;17097;50.916;5.344;2023-09-19T04:40:20;16.60;99.90
30280;DHT22;17097;50.916;5.344;2023-09-19T04:42:52;16.60;99.90
30280;DHT22;17097;50.916;5.344;2023-09-19T04:45:18;16.50;99.90
30280;DHT22;17097;50.916;5.344;2023-09-19T04:47:46;16.50;99.90
30280;DHT22;17097;50.916;5.344;2023-09-19T04:50:12;16.50;99.90
30280;DHT22;17097;50.916;5.344;2023-09-19T04:52:39;16.60;99.90
30280;DHT22;17097;50.916;5.344;2023-09-19T04:55:08;16.50;99.90
30280;DHT22;17097;50.916;5.344;2023-09-19T04:57:34;16.50;99.90
30280;DHT22;17097;50.916;5.344;2023-09-19T04:59:59;16.40;99.90
30280;DHT22;17097;50.916;5.344;2023-09-19T05:02:26;16.50;99.90
30280;DHT22;17097;50.916;5.344;2023-09-19T05:04:56;16.40;99.90
30280;DHT22;17097;50.916;5.344;2023-09-19T05:07:24;16.40;99.90
30280;DHT22;17097;50.916;5.344;2023-09-19T05:09:51;16.30;99.90
30280;DHT22;17097;50.916;5.344;2023-09-19T05:12:18;16.30;99.90
30280;DHT22;17097;50.916;5.344;2023-09-19T05:14:45;16.20;99.90
30280;DHT22;17097;50.916;5.344;2023-09-19T05:17:10;16.40;99.90
30280;DHT22;17097;50.916;5.344;2023-09-19T05:19:36;16.40;99.90
30280;DHT22;17097;50.916;5.344;2023-09-19T05:22:03;16.40;99.90
30280;DHT22;17097;50.916;5.344;2023-09-19T05:24:32;16.30;99.90
30280;DHT22;17097;50.916;5.344;2023-09-19T05:26:57;16.20;99.90
30280;DHT22;17097;50.916;5.344;2023-09-19T05:29:23;16.30;99.90
30280;DHT22;17097;50.916;5.344;2023-09-19T05:31:49;16.20;99.90
30280;DHT22;17097;50.916;5.344;2023-09-19T05:34:15;16.20;99.90
30280;DHT22;17097;50.916;5.344;2023-09-19T05:36:42;16.10;99.90
30280;DHT22;17097;50.916;5.344;2023-09-19T05:39:10;16.20;99.90
30280;DHT22;17097;50.916;5.344;2023-09-19T05:41:36;16.30;99.90
30280;DHT22;17097;50.916;5.344;2023-09-19T05:44:05;16.30;99.90
30280;DHT22;17097;50.916;5.344;2023-09-19T05:46:32;16.20;99.90
30280;DHT22;17097;50.916;5.344;2023-09-19T05:48:57;16.20;99.90
30280;DHT22;17097;50.916;5.344;2023-09-19T05:51:23;16.20;99.90
30280;DHT22;17097;50.916;5.344;2023-09-19T05:53:49;16.20;99.90
30280;DHT22;17097;50.916;5.344;2023-09-19T05:56:15;16.20;99.90
30280;DHT22;17097;50.916;5.344;2023-09-19T05:58:42;16.30;99.90
30280;DHT22;17097;50.916;5.344;2023-09-19T06:01:09;16.30;99.90
30280;DHT22;17097;50.916;5.344;2023-09-19T06:03:35;16.20;99.90
30280;DHT22;17097;50.916;5.344;2023-09-19T06:06:03;16.20;99.90
30280;DHT22;17097;50.916;5.344;2023-09-19T06:08:32;16.20;99.90
30280;DHT22;17097;50.916;5.344;2023-09-19T06:10:59;16.20;99.90
30280;DHT22;17097;50.916;5.344;2023-09-19T06:13:28;16.30;99.90
30280;DHT22;17097;50.916;5.344;2023-09-19T06:15:58;16.30;99.90
30280;DHT22;17097;50.916;5.344;2023-09-19T06:18:28;16.20;99.90
30280;DHT22;17097;50.916;5.344;2023-09-19T06:20:54;16.10;99.90
30280;DHT22;17097;50.916;5.344;2023-09-19T06:23:23;16.20;99.90
30280;DHT22;17097;50.916;5.344;2023-09-19T06:25:49;16.30;99.90
30280;DHT22;17097;50.916;5.344;2023-09-19T06:28:15;16.40;99.90
30280;DHT22;17097;50.916;5.344;2023-09-19T06:30:43;16.40;99.90
30280;DHT22;17097;50.916;5.344;2023-09-19T06:33:13;16.40;99.90
30280;DHT22;17097;50.916;5.344;2023-09-19T06:35:38;16.40;99.90
30280;DHT22;17097;50.916;5.344;2023-09-19T06:38:04;16.50;99.90
30280;DHT22;17097;50.916;5.344;2023-09-19T06:40:31;16.60;99.90
30280;DHT22;17097;50.916;5.344;2023-09-19T06:42:56;16.60;99.90
30280;DHT22;17097;50.916;5.344;2023-09-19T06:45:22;16.70;99.90
30280;DHT22;17097;50.916;5.344;2023-09-19T06:47:48;16.70;99.90
30280;DHT22;17097;50.916;5.344;2023-09-19T06:50:15;16.60;99.90
30280;DHT22;17097;50.916;5.344;2023-09-19T06:52:44;16.60;99.90
30280;DHT22;17097;50.916;5.344;2023-09-19T06:55:09;16.60;99.90
30280;DHT22;17097;50.916;5.344;2023-09-19T06:57:37;16.80;99.90
30280;DHT22;17097;50.916;5.344;2023-09-19T07:00:02;16.70;99.90
30280;DHT22;17097;50.916;5.344;2023-09-19T07:02:34;16.80;99.90
30280;DHT22;17097;50.916;5.344;2023-09-19T07:05:02;16.90;99.90
30280;DHT22;17097;50.916;5.344;2023-09-19T07:07:27;16.90;99.90
30280;DHT22;17097;50.916;5.344;2023-09-19T07:09:54;17.00;99.90
30280;DHT22;17097;50.916;5.344;2023-09-19T07:12:20;17.10;99.90
30280;DHT22;17097;50.916;5.344;2023-09-19T07:14:45;17.30;99.90
30280;DHT22;17097;50.916;5.344;2023-09-19T07:17:11;17.40;99.90
30280;DHT22;17097;50.916;5.344;2023-09-19T07:19:37;17.40;99.90
30280;DHT22;17097;50.916;5.344;2023-09-19T07:22:02;17.40;99.90
30280;DHT22;17097;50.916;5.344;2023-09-19T07:24:28;17.40;99.90
30280;DHT22;17097;50.916;5.344;2023-09-19T07:26:54;17.40;99.90
30280;DHT22;17097;50.916;5.344;2023-09-19T07:29:19;17.50;99.90
30280;DHT22;17097;50.916;5.344;2023-09-19T07:31:45;17.40;99.90
30280;DHT22;17097;50.916;5.344;2023-09-19T07:34:11;17.50;99.90
30280;DHT22;17097;50.916;5.344;2023-09-19T07:36:37;17.50;99.90
30280;DHT22;17097;50.916;5.344;2023-09-19T07:39:03;17.60;99.90
30280;DHT22;17097;50.916;5.344;2023-09-19T07:41:32;17.90;99.90
30280;DHT22;17097;50.916;5.344;2023-09-19T07:43:58;17.90;99.90
30280;DHT22;17097;50.916;5.344;2023-09-19T07:46:23;17.90;99.90
30280;DHT22;17097;50.916;5.344;2023-09-19T07:48:50;17.90;99.90
30280;DHT22;17097;50.916;5.344;2023-09-19T07:51:15;17.90;99.90
30280;DHT22;17097;50.916;5.344;2023-09-19T07:53:41;17.90;99.90
30280;DHT22;17097;50.916;5.344;2023-09-19T07:56:07;18.00;99.90
30280;DHT22;17097;50.916;5.344;2023-09-19T07:58:34;18.20;99.90
30280;DHT22;17097;50.916;5.344;2023-09-19T08:01:06;18.20;99.90
30280;DHT22;17097;50.916;5.344;2023-09-19T08:03:32;18.20;99.90
30280;DHT22;17097;50.916;5.344;2023-09-19T08:05:59;18.40;99.90
30280;DHT22;17097;50.916;5.344;2023-09-19T08:08:26;18.40;99.90
30280;DHT22;17097;50.916;5.344;2023-09-19T08:10:55;18.40;99.90
30280;DHT22;17097;50.916;5.344;2023-09-19T08:13:25;18.50;99.90
30280;DHT22;17097;50.916;5.344;2023-09-19T08:15:53;18.60;99.90
30280;DHT22;17097;50.916;5.344;2023-09-19T08:18:18;18.70;99.90
30280;DHT22;17097;50.916;5.344;2023-09-19T08:20:51;18.70;99.90
30280;DHT22;17097;50.916;5.344;2023-09-19T08:23:19;18.70;99.90
30280;DHT22;17097;50.916;5.344;2023-09-19T08:25:49;18.60;99.90
30280;DHT22;17097;50.916;5.344;2023-09-19T08:28:14;18.60;99.90
30280;DHT22;17097;50.916;5.344;2023-09-19T08:30:47;18.70;99.90
30280;DHT22;17097;50.916;5.344;2023-09-19T08:33:12;18.80;99.90
30280;DHT22;17097;50.916;5.344;2023-09-19T08:35:40;19.00;99.90
30280;DHT22;17097;50.916;5.344;2023-09-19T08:38:08;19.30;99.90
30280;DHT22;17097;50.916;5.344;2023-09-19T08:40:37;19.30;99.90
30280;DHT22;17097;50.916;5.344;2023-09-19T08:43:05;19.30;99.90
30280;DHT22;17097;50.916;5.344;2023-09-19T08:45:32;19.60;99.90
30280;DHT22;17097;50.916;5.344;2023-09-19T08:50:33;19.50;99.90
30280;DHT22;17097;50.916;5.344;2023-09-19T08:53:10;19.50;99.90
30280;DHT22;17097;50.916;5.344;2023-09-19T08:55:37;19.60;99.90
30280;DHT22;17097;50.916;5.344;2023-09-19T08:58:05;19.60;99.90
30280;DHT22;17097;50.916;5.344;2023-09-19T09:00:32;19.60;99.90
30280;DHT22;17097;50.916;5.344;2023-09-19T09:02:58;19.60;99.90
30280;DHT22;17097;50.916;5.344;2023-09-19T09:05:24;19.60;99.90
30280;DHT22;17097;50.916;5.344;2023-09-19T09:07:50;19.50;99.90
30280;DHT22;17097;50.916;5.344;2023-09-19T09:10:19;19.60;99.90
30280;DHT22;17097;50.916;5.344;2023-09-19T09:12:51;19.80;99.90
30280;DHT22;17097;50.916;5.344;2023-09-19T09:15:17;19.80;99.90
30280;DHT22;17097;50.916;5.344;2023-09-19T09:17:46;19.80;99.90
30280;DHT22;17097;50.916;5.344;2023-09-19T09:20:14;20.00;99.90
30280;DHT22;17097;50.916;5.344;2023-09-19T09:22:49;19.90;99.90
30280;DHT22;17097;50.916;5.344;2023-09-19T09:25:15;20.20;99.90
30280;DHT22;17097;50.916;5.344;2023-09-19T09:27:43;20.50;99.90
30280;DHT22;17097;50.916;5.344;2023-09-19T09:30:10;20.70;99.90
30280;DHT22;17097;50.916;5.344;2023-09-19T09:33:11;21.00;99.90
30280;DHT22;17097;50.916;5.344;2023-09-19T09:35:46;21.50;99.90
30280;DHT22;17097;50.916;5.344;2023-09-19T09:38:12;21.50;99.90
30280;DHT22;17097;50.916;5.344;2023-09-19T09:40:57;21.60;99.90
30280;DHT22;17097;50.916;5.344;2023-09-19T09:43:26;21.70;99.90
30280;DHT22;17097;50.916;5.344;2023-09-19T09:46:11;21.50;99.90
30280;DHT22;17097;50.916;5.344;2023-09-19T09:48:58;21.40;99.90
30280;DHT22;17097;50.916;5.344;2023-09-19T09:51:43;21.90;99.90
30280;DHT22;17097;50.916;5.344;2023-09-19T09:54:17;21.70;99.90
30280;DHT22;17097;50.916;5.344;2023-09-19T09:56:55;21.90;99.90
30280;DHT22;17097;50.916;5.344;2023-09-19T10:02:08;21.70;99.90
30280;DHT22;17097;50.916;5.344;2023-09-19T10:04:39;21.60;99.90
30280;DHT22;17097;50.916;5.344;2023-09-19T10:07:29;21.40;99.90
30280;DHT22;17097;50.916;5.344;2023-09-19T10:10:03;21.30;99.90
30280;DHT22;17097;50.916;5.344;2023-09-19T10:12:44;21.60;99.90
30280;DHT22;17097;50.916;5.344;2023-09-19T10:15:14;21.50;99.90
30280;DHT22;17097;50.916;5.344;2023-09-19T10:17:44;21.70;99.90
30280;DHT22;17097;50.916;5.344;2023-09-19T10:20:13;21.80;99.90
30280;DHT22;17097;50.916;5.344;2023-09-19T10:22:56;21.70;99.90
30280;DHT22;17097;50.916;5.344;2023-09-19T10:25:27;21.50;99.90
30280;DHT22;17097;50.916;5.344;2023-09-19T10:28:02;21.70;99.90
30280;DHT22;17097;50.916;5.344;2023-09-19T10:30:46;21.80;99.90
30280;DHT22;17097;50.916;5.344;2023-09-19T10:33:19;21.60;99.90
30280;DHT22;17097;50.916;5.344;2023-09-19T10:35:48;21.60;99.90
30280;DHT22;17097;50.916;5.344;2023-09-19T10:38:15;21.50;99.90
30280;DHT22;17097;50.916;5.344;2023-09-19T10:40:44;21.80;99.90
30280;DHT22;17097;50.916;5.344;2023-09-19T10:43:14;21.90;99.90
30280;DHT22;17097;50.916;5.344;2023-09-19T10:45:43;21.80;99.90
30280;DHT22;17097;50.916;5.344;2023-09-19T10:48:09;21.70;99.90
30280;DHT22;17097;50.916;5.344;2023-09-19T10:50:51;21.80;99.90
30280;DHT22;17097;50.916;5.344;2023-09-19T10:53:17;21.60;99.90
30280;DHT22;17097;50.916;5.344;2023-09-19T10:55:54;21.60;99.90
30280;DHT22;17097;50.916;5.344;2023-09-19T10:58:27;21.70;99.90
30280;DHT22;17097;50.916;5.344;2023-09-19T11:00:57;21.80;99.90
30280;DHT22;17097;50.916;5.344;2023-09-19T11:03:37;21.90;99.90
30280;DHT22;17097;50.916;5.344;2023-09-19T11:06:17;22.00;99.90
30280;DHT22;17097;50.916;5.344;2023-09-19T11:09:00;22.20;99.90
30280;DHT22;17097;50.916;5.344;2023-09-19T11:11:48;22.20;99.90
30280;DHT22;17097;50.916;5.344;2023-09-19T11:22:18;21.80;99.90
30280;DHT22;17097;50.916;5.344;2023-09-19T11:24:47;21.80;99.90
30280;DHT22;17097;50.916;5.344;2023-09-19T11:27:14;21.70;99.90
30280;DHT22;17097;50.916;5.344;2023-09-19T11:29:42;21.60;99.90
30280;DHT22;17097;50.916;5.344;2023-09-19T11:32:07;21.60;99.90
30280;DHT22;17097;50.916;5.344;2023-09-19T11:34:42;21.80;99.90
30280;DHT22;17097;50.916;5.344;2023-09-19T11:39:39;21.50;99.90
30280;DHT22;17097;50.916;5.344;2023-09-19T11:44:52;21.60;99.90
30280;DHT22;17097;50.916;5.344;2023-09-19T11:47:21;21.50;99.90
30280;DHT22;17097;50.916;5.344;2023-09-19T11:49:47;21.50;99.90
30280;DHT22;17097;50.916;5.344;2023-09-19T11:52:21;21.50;99.90
30280;DHT22;17097;50.916;5.344;2023-09-19T11:54:54;21.60;99.90
30280;DHT22;17097;50.916;5.344;2023-09-19T11:57:22;21.50;99.90
30280;DHT22;17097;50.916;5.344;2023-09-19T11:59:47;21.50;99.90
30280;DHT22;17097;50.916;5.344;2023-09-19T12:02:15;21.50;99.90
30280;DHT22;17097;50.916;5.344;2023-09-19T12:04:46;21.80;99.90
30280;DHT22;17097;50.916;5.344;2023-09-19T12:07:16;21.80;99.90
30280;DHT22;17097;50.916;5.344;2023-09-19T12:09:45;21.70;99.90
30280;DHT22;17097;50.916;5.344;2023-09-19T12:12:24;21.70;99.90
30280;DHT22;17097;50.916;5.344;2023-09-19T12:14:54;21.90;99.90
30280;DHT22;17097;50.916;5.344;2023-09-19T12:17:20;21.70;99.90
30280;DHT22;17097;50.916;5.344;2023-09-19T12:19:52;21.70;99.90
30280;DHT22;17097;50.916;5.344;2023-09-19T12:22:18;21.70;99.90
30280;DHT22;17097;50.916;5.344;2023-09-19T12:24:45;21.80;99.90
30280;DHT22;17097;50.916;5.344;2023-09-19T12:27:12;21.70;99.90
30280;DHT22;17097;50.916;5.344;2023-09-19T12:29:46;21.70;99.90
30280;DHT22;17097;50.916;5.344;2023-09-19T12:32:13;21.60;99.90
30280;DHT22;17097;50.916;5.344;2023-09-19T12:34:42;21.50;99.90
30280;DHT22;17097;50.916;5.344;2023-09-19T12:39:46;21.50;99.90
30280;DHT22;17097;50.916;5.344;2023-09-19T12:42:20;21.40;99.90
30280;DHT22;17097;50.916;5.344;2023-09-19T12:44:46;21.40;99.90
30280;DHT22;17097;50.916;5.344;2023-09-19T12:47:14;21.30;99.90
30280;DHT22;17097;50.916;5.344;2023-09-19T12:52:33;21.30;99.90
30280;DHT22;17097;50.916;5.344;2023-09-19T12:54:59;21.60;99.90
30280;DHT22;17097;50.916;5.344;2023-09-19T12:57:26;21.70;99.90
30280;DHT22;17097;50.916;5.344;2023-09-19T12:59:52;21.40;99.90
30280;DHT22;17097;50.916;5.344;2023-09-19T13:02:18;21.20;99.90
30280;DHT22;17097;50.916;5.344;2023-09-19T13:04:55;21.10;99.90
30280;DHT22;17097;50.916;5.344;2023-09-19T13:07:43;21.10;99.90
30280;DHT22;17097;50.916;5.344;2023-09-19T13:10:10;21.40;99.90
30280;DHT22;17097;50.916;5.344;2023-09-19T13:12:37;21.30;99.90
30280;DHT22;17097;50.916;5.344;2023-09-19T13:15:10;21.40;99.90
30280;DHT22;17097;50.916;5.344;2023-09-19T13:17:46;21.40;99.90
30280;DHT22;17097;50.916;5.344;2023-09-19T13:20:24;21.50;99.90
30280;DHT22;17097;50.916;5.344;2023-09-19T13:22:55;21.30;99.90
30280;DHT22;17097;50.916;5.344;2023-09-19T13:25:26;21.10;99.90
30280;DHT22;17097;50.916;5.344;2023-09-19T13:27:54;21.20;99.90
30280;DHT22;17097;50.916;5.344;2023-09-19T13:30:24;21.10;99.90
30280;DHT22;17097;50.916;5.344;2023-09-19T13:33:04;21.10;99.90
30280;DHT22;17097;50.916;5.344;2023-09-19T13:35:31;21.40;99.90
30280;DHT22;17097;50.916;5.344;2023-09-19T13:37:56;21.40;99.90
30280;DHT22;17097;50.916;5.344;2023-09-19T13:40:22;21.40;99.90
30280;DHT22;17097;50.916;5.344;2023-09-19T13:42:47;21.20;99.90
30280;DHT22;17097;50.916;5.344;2023-09-19T13:45:14;21.40;99.90
30280;DHT22;17097;50.916;5.344;2023-09-19T13:47:42;21.40;99.90
30280;DHT22;17097;50.916;5.344;2023-09-19T13:50:08;21.30;99.90
30280;DHT22;17097;50.916;5.344;2023-09-19T13:52:34;21.30;99.90
30280;DHT22;17097;50.916;5.344;2023-09-19T13:54:59;21.40;99.90
30280;DHT22;17097;50.916;5.344;2023-09-19T13:57:25;21.40;99.90
30280;DHT22;17097;50.916;5.344;2023-09-19T13:59:51;21.60;99.90
30280;DHT22;17097;50.916;5.344;2023-09-19T14:02:17;21.70;99.90
30280;DHT22;17097;50.916;5.344;2023-09-19T14:04:43;21.70;99.90
30280;DHT22;17097;50.916;5.344;2023-09-19T14:07:09;21.80;99.90
30280;DHT22;17097;50.916;5.344;2023-09-19T14:09:36;22.00;99.90
30280;DHT22;17097;50.916;5.344;2023-09-19T14:12:02;21.90;99.90
30280;DHT22;17097;50.916;5.344;2023-09-19T14:14:27;21.90;99.90
30280;DHT22;17097;50.916;5.344;2023-09-19T14:16:53;21.70;99.90
30280;DHT22;17097;50.916;5.344;2023-09-19T14:19:19;21.70;99.90
30280;DHT22;17097;50.916;5.344;2023-09-19T14:21:44;21.50;99.90
30280;DHT22;17097;50.916;5.344;2023-09-19T14:24:18;21.40;99.90
30280;DHT22;17097;50.916;5.344;2023-09-19T14:26:44;21.40;99.90
30280;DHT22;17097;50.916;5.344;2023-09-19T14:29:10;21.30;99.90
30280;DHT22;17097;50.916;5.344;2023-09-19T14:31:37;21.20;99.90
30280;DHT22;17097;50.916;5.344;2023-09-19T14:34:03;21.30;99.90
30280;DHT22;17097;50.916;5.344;2023-09-19T14:36:29;21.10;99.90
30280;DHT22;17097;50.916;5.344;2023-09-19T14:38:55;21.20;99.90
30280;DHT22;17097;50.916;5.344;2023-09-19T14:41:21;21.10;99.90
30280;DHT22;17097;50.916;5.344;2023-09-19T14:43:54;21.10;99.90
30280;DHT22;17097;50.916;5.344;2023-09-19T14:46:22;21.10;99.90
30280;DHT22;17097;50.916;5.344;2023-09-19T14:48:52;21.20;99.90
30280;DHT22;17097;50.916;5.344;2023-09-19T14:51:18;21.20;99.90
30280;DHT22;17097;50.916;5.344;2023-09-19T14:53:47;21.20;99.90
30280;DHT22;17097;50.916;5.344;2023-09-19T14:56:15;21.10;99.90
30280;DHT22;17097;50.916;5.344;2023-09-19T14:58:43;21.10;99.90
30280;DHT22;17097;50.916;5.344;2023-09-19T15:01:10;21.10;99.90
30280;DHT22;17097;50.916;5.344;2023-09-19T15:03:35;21.10;99.90
30280;DHT22;17097;50.916;5.344;2023-09-19T15:06:02;21.00;99.90
30280;DHT22;17097;50.916;5.344;2023-09-19T15:08:30;21.10;99.90
30280;DHT22;17097;50.916;5.344;2023-09-19T15:10:56;21.20;99.90
30280;DHT22;17097;50.916;5.344;2023-09-19T15:13:23;21.00;99.90
30280;DHT22;17097;50.916;5.344;2023-09-19T15:15:58;21.00;99.90
30280;DHT22;17097;50.916;5.344;2023-09-19T15:18:23;20.90;99.90
30280;DHT22;17097;50.916;5.344;2023-09-19T15:20:49;20.80;99.90
30280;DHT22;17097;50.916;5.344;2023-09-19T15:23:16;20.90;99.90
30280;DHT22;17097;50.916;5.344;2023-09-19T15:25:49;20.80;99.90
30280;DHT22;17097;50.916;5.344;2023-09-19T15:28:15;20.90;99.90
30280;DHT22;17097;50.916;5.344;2023-09-19T15:30:41;20.80;99.90
30280;DHT22;17097;50.916;5.344;2023-09-19T15:33:06;20.80;99.90
30280;DHT22;17097;50.916;5.344;2023-09-19T15:35:32;20.90;99.90
30280;DHT22;17097;50.916;5.344;2023-09-19T15:37:57;20.80;99.90
30280;DHT22;17097;50.916;5.344;2023-09-19T15:40:26;20.80;99.90
30280;DHT22;17097;50.916;5.344;2023-09-19T15:42:52;20.70;99.90
30280;DHT22;17097;50.916;5.344;2023-09-19T15:45:19;20.70;99.90
30280;DHT22;17097;50.916;5.344;2023-09-19T15:47:47;20.80;99.90
30280;DHT22;17097;50.916;5.344;2023-09-19T15:50:13;20.80;99.90
30280;DHT22;17097;50.916;5.344;2023-09-19T15:52:41;20.70;99.90
30280;DHT22;17097;50.916;5.344;2023-09-19T15:55:07;20.70;99.90
30280;DHT22;17097;50.916;5.344;2023-09-19T15:57:33;20.70;99.90
30280;DHT22;17097;50.916;5.344;2023-09-19T16:00:02;20.70;99.90
30280;DHT22;17097;50.916;5.344;2023-09-19T16:02:29;20.70;99.90
30280;DHT22;17097;50.916;5.344;2023-09-19T16:04:55;20.60;99.90
30280;DHT22;17097;50.916;5.344;2023-09-19T16:07:21;20.50;99.90
30280;DHT22;17097;50.916;5.344;2023-09-19T16:09:46;20.50;99.90
30280;DHT22;17097;50.916;5.344;2023-09-19T16:12:12;20.60;99.90
30280;DHT22;17097;50.916;5.344;2023-09-19T16:14:39;20.60;99.90
30280;DHT22;17097;50.916;5.344;2023-09-19T16:17:05;20.50;99.90
30280;DHT22;17097;50.916;5.344;2023-09-19T16:19:32;20.50;99.90